sensor_id;sensor_type;location;lat;lon;timestamp;P1;durP1;ratioP1;P2;durP2;ratioP2
54743;SDS011;40639;53.170;6.728;2023-07-28T00:02:21;23.63;;;8.73;;
54743;SDS011;40639;53.170;6.728;2023-07-28T00:04:47;25.55;;;9.75;;
54743;SDS011;40639;53.170;6.728;2023-07-28T00:07:13;22.40;;;9.95;;
54743;SDS011;40639;53.170;6.728;2023-07-28T00:09:39;22.98;;;9.68;;
54743;SDS011;40639;53.170;6.728;2023-07-28T00:12:06;23.85;;;11.02;;
54743;SDS011;40639;53.170;6.728;2023-07-28T00:14:32;29.23;;;11.05;;
54743;SDS011;40639;53.170;6.728;2023-07-28T00:16:58;29.60;;;10.75;;
54743;SDS011;40639;53.170;6.728;2023-07-28T00:19:24;23.83;;;11.23;;
54743;SDS011;40639;53.170;6.728;2023-07-28T00:21:51;25.48;;;10.63;;
54743;SDS011;40639;53.170;6.728;2023-07-28T00:24:17;22.58;;;10.15;;
54743;SDS011;40639;53.170;6.728;2023-07-28T00:26:44;20.80;;;9.95;;
54743;SDS011;40639;53.170;6.728;2023-07-28T00:29:10;21.63;;;9.82;;
54743;SDS011;40639;53.170;6.728;2023-07-28T00:31:36;21.38;;;10.27;;
54743;SDS011;40639;53.170;6.728;2023-07-28T00:34:02;23.35;;;8.30;;
54743;SDS011;40639;53.170;6.728;2023-07-28T00:36:29;21.23;;;8.60;;
54743;SDS011;40639;53.170;6.728;2023-07-28T00:38:55;17.30;;;8.88;;
54743;SDS011;40639;53.170;6.728;2023-07-28T00:41:21;18.48;;;8.13;;
54743;SDS011;40639;53.170;6.728;2023-07-28T00:43:48;16.98;;;7.30;;
54743;SDS011;40639;53.170;6.728;2023-07-28T00:46:14;15.27;;;8.35;;
54743;SDS011;40639;53.170;6.728;2023-07-28T00:48:40;22.02;;;8.07;;
54743;SDS011;40639;53.170;6.728;2023-07-28T00:51:09;18.23;;;8.30;;
54743;SDS011;40639;53.170;6.728;2023-07-28T00:53:36;19.50;;;8.75;;
54743;SDS011;40639;53.170;6.728;2023-07-28T00:56:02;18.60;;;9.05;;
54743;SDS011;40639;53.170;6.728;2023-07-28T00:58:29;22.08;;;10.02;;
54743;SDS011;40639;53.170;6.728;2023-07-28T01:00:56;21.75;;;10.27;;
54743;SDS011;40639;53.170;6.728;2023-07-28T01:03:22;22.58;;;9.85;;
54743;SDS011;40639;53.170;6.728;2023-07-28T01:08:46;25.00;;;9.30;;
54743;SDS011;40639;53.170;6.728;2023-07-28T01:11:13;19.20;;;10.48;;
54743;SDS011;40639;53.170;6.728;2023-07-28T01:13:39;21.92;;;9.05;;
54743;SDS011;40639;53.170;6.728;2023-07-28T01:16:05;21.77;;;10.13;;
54743;SDS011;40639;53.170;6.728;2023-07-28T01:18:32;21.15;;;10.93;;
54743;SDS011;40639;53.170;6.728;2023-07-28T01:21:00;21.08;;;9.80;;
54743;SDS011;40639;53.170;6.728;2023-07-28T01:23:44;22.13;;;10.48;;
54743;SDS011;40639;53.170;6.728;2023-07-28T01:26:12;25.70;;;11.50;;
54743;SDS011;40639;53.170;6.728;2023-07-28T01:28:41;25.02;;;12.30;;
54743;SDS011;40639;53.170;6.728;2023-07-28T01:31:08;24.98;;;11.70;;
54743;SDS011;40639;53.170;6.728;2023-07-28T01:33:34;26.20;;;11.77;;
54743;SDS011;40639;53.170;6.728;2023-07-28T01:36:01;25.60;;;12.13;;
54743;SDS011;40639;53.170;6.728;2023-07-28T01:38:28;29.05;;;13.00;;
54743;SDS011;40639;53.170;6.728;2023-07-28T01:40:54;23.80;;;11.60;;
54743;SDS011;40639;53.170;6.728;2023-07-28T01:43:20;28.50;;;13.10;;
54743;SDS011;40639;53.170;6.728;2023-07-28T01:45:46;27.45;;;13.05;;
54743;SDS011;40639;53.170;6.728;2023-07-28T01:48:12;28.45;;;13.00;;
54743;SDS011;40639;53.170;6.728;2023-07-28T01:50:38;31.65;;;12.80;;
54743;SDS011;40639;53.170;6.728;2023-07-28T01:53:05;29.02;;;13.13;;
54743;SDS011;40639;53.170;6.728;2023-07-28T01:55:31;27.23;;;12.88;;
54743;SDS011;40639;53.170;6.728;2023-07-28T01:57:58;23.42;;;12.10;;
54743;SDS011;40639;53.170;6.728;2023-07-28T02:00:24;25.48;;;12.05;;
54743;SDS011;40639;53.170;6.728;2023-07-28T02:02:51;24.50;;;11.57;;
54743;SDS011;40639;53.170;6.728;2023-07-28T02:05:18;20.45;;;10.77;;
54743;SDS011;40639;53.170;6.728;2023-07-28T02:07:44;22.88;;;10.30;;
54743;SDS011;40639;53.170;6.728;2023-07-28T02:10:11;20.42;;;10.65;;
54743;SDS011;40639;53.170;6.728;2023-07-28T02:12:37;25.15;;;11.38;;
54743;SDS011;40639;53.170;6.728;2023-07-28T02:15:04;22.63;;;10.40;;
54743;SDS011;40639;53.170;6.728;2023-07-28T02:17:30;23.52;;;11.60;;
54743;SDS011;40639;53.170;6.728;2023-07-28T02:19:56;21.77;;;10.10;;
54743;SDS011;40639;53.170;6.728;2023-07-28T02:22:22;23.50;;;11.07;;
54743;SDS011;40639;53.170;6.728;2023-07-28T02:24:49;23.30;;;11.13;;
54743;SDS011;40639;53.170;6.728;2023-07-28T02:27:15;24.05;;;11.00;;
54743;SDS011;40639;53.170;6.728;2023-07-28T02:29:41;22.30;;;10.82;;
54743;SDS011;40639;53.170;6.728;2023-07-28T02:32:07;23.70;;;11.48;;
54743;SDS011;40639;53.170;6.728;2023-07-28T02:34:34;19.83;;;10.60;;
54743;SDS011;40639;53.170;6.728;2023-07-28T02:37:00;21.05;;;10.35;;
54743;SDS011;40639;53.170;6.728;2023-07-28T02:39:26;24.63;;;12.10;;
54743;SDS011;40639;53.170;6.728;2023-07-28T02:41:53;24.77;;;11.73;;
54743;SDS011;40639;53.170;6.728;2023-07-28T02:44:19;31.45;;;13.23;;
54743;SDS011;40639;53.170;6.728;2023-07-28T02:46:45;28.55;;;13.38;;
54743;SDS011;40639;53.170;6.728;2023-07-28T02:49:11;30.40;;;13.02;;
54743;SDS011;40639;53.170;6.728;2023-07-28T02:51:37;31.27;;;13.07;;
54743;SDS011;40639;53.170;6.728;2023-07-28T02:54:04;27.58;;;13.90;;
54743;SDS011;40639;53.170;6.728;2023-07-28T02:56:31;32.17;;;13.02;;
54743;SDS011;40639;53.170;6.728;2023-07-28T02:58:59;29.52;;;13.02;;
54743;SDS011;40639;53.170;6.728;2023-07-28T03:01:26;28.92;;;12.43;;
54743;SDS011;40639;53.170;6.728;2023-07-28T03:03:53;24.30;;;11.52;;
54743;SDS011;40639;53.170;6.728;2023-07-28T03:06:19;23.70;;;11.65;;
54743;SDS011;40639;53.170;6.728;2023-07-28T03:08:45;24.40;;;11.45;;
54743;SDS011;40639;53.170;6.728;2023-07-28T03:11:11;23.20;;;10.70;;
54743;SDS011;40639;53.170;6.728;2023-07-28T03:13:37;25.88;;;11.00;;
54743;SDS011;40639;53.170;6.728;2023-07-28T03:16:04;26.33;;;11.52;;
54743;SDS011;40639;53.170;6.728;2023-07-28T03:18:30;29.20;;;11.77;;
54743;SDS011;40639;53.170;6.728;2023-07-28T03:20:56;26.83;;;12.25;;
54743;SDS011;40639;53.170;6.728;2023-07-28T03:23:22;25.40;;;11.13;;
54743;SDS011;40639;53.170;6.728;2023-07-28T03:25:48;25.38;;;11.65;;
54743;SDS011;40639;53.170;6.728;2023-07-28T03:28:14;23.27;;;11.40;;
54743;SDS011;40639;53.170;6.728;2023-07-28T03:30:40;23.17;;;10.90;;
54743;SDS011;40639;53.170;6.728;2023-07-28T03:33:06;27.13;;;10.25;;
54743;SDS011;40639;53.170;6.728;2023-07-28T03:35:32;23.77;;;11.18;;
54743;SDS011;40639;53.170;6.728;2023-07-28T03:37:58;23.60;;;11.68;;
54743;SDS011;40639;53.170;6.728;2023-07-28T03:40:25;28.73;;;10.75;;
54743;SDS011;40639;53.170;6.728;2023-07-28T03:42:51;23.88;;;10.32;;
54743;SDS011;40639;53.170;6.728;2023-07-28T03:45:18;23.52;;;10.77;;
54743;SDS011;40639;53.170;6.728;2023-07-28T03:47:44;22.88;;;11.20;;
54743;SDS011;40639;53.170;6.728;2023-07-28T03:50:10;22.42;;;10.10;;
54743;SDS011;40639;53.170;6.728;2023-07-28T03:52:36;22.23;;;10.43;;
54743;SDS011;40639;53.170;6.728;2023-07-28T03:55:02;26.77;;;11.02;;
54743;SDS011;40639;53.170;6.728;2023-07-28T03:57:29;22.80;;;10.93;;
54743;SDS011;40639;53.170;6.728;2023-07-28T03:59:55;30.27;;;11.45;;
54743;SDS011;40639;53.170;6.728;2023-07-28T04:02:21;21.92;;;10.43;;
54743;SDS011;40639;53.170;6.728;2023-07-28T04:04:52;26.50;;;11.02;;
54743;SDS011;40639;53.170;6.728;2023-07-28T04:07:18;22.23;;;10.45;;
54743;SDS011;40639;53.170;6.728;2023-07-28T04:09:44;23.23;;;9.93;;
54743;SDS011;40639;53.170;6.728;2023-07-28T04:12:11;19.98;;;10.45;;
54743;SDS011;40639;53.170;6.728;2023-07-28T04:14:37;27.77;;;10.82;;
54743;SDS011;40639;53.170;6.728;2023-07-28T04:17:03;23.02;;;10.50;;
54743;SDS011;40639;53.170;6.728;2023-07-28T04:19:29;20.48;;;10.27;;
54743;SDS011;40639;53.170;6.728;2023-07-28T04:21:59;26.52;;;9.93;;
54743;SDS011;40639;53.170;6.728;2023-07-28T04:24:26;20.20;;;9.82;;
54743;SDS011;40639;53.170;6.728;2023-07-28T04:26:52;21.40;;;9.98;;
54743;SDS011;40639;53.170;6.728;2023-07-28T04:29:18;21.13;;;9.63;;
54743;SDS011;40639;53.170;6.728;2023-07-28T04:31:45;22.85;;;9.27;;
54743;SDS011;40639;53.170;6.728;2023-07-28T04:34:11;23.90;;;10.02;;
54743;SDS011;40639;53.170;6.728;2023-07-28T04:36:37;27.80;;;9.52;;
54743;SDS011;40639;53.170;6.728;2023-07-28T04:39:03;20.20;;;9.25;;
54743;SDS011;40639;53.170;6.728;2023-07-28T04:41:29;19.45;;;9.15;;
54743;SDS011;40639;53.170;6.728;2023-07-28T04:43:56;23.48;;;9.48;;
54743;SDS011;40639;53.170;6.728;2023-07-28T04:46:22;22.63;;;9.55;;
54743;SDS011;40639;53.170;6.728;2023-07-28T04:48:48;18.70;;;9.20;;
54743;SDS011;40639;53.170;6.728;2023-07-28T04:51:14;24.17;;;9.80;;
54743;SDS011;40639;53.170;6.728;2023-07-28T04:53:41;19.10;;;8.65;;
54743;SDS011;40639;53.170;6.728;2023-07-28T04:56:07;26.23;;;9.13;;
54743;SDS011;40639;53.170;6.728;2023-07-28T04:58:33;18.00;;;8.35;;
54743;SDS011;40639;53.170;6.728;2023-07-28T05:01:00;22.15;;;9.45;;
54743;SDS011;40639;53.170;6.728;2023-07-28T05:03:27;18.05;;;8.25;;
54743;SDS011;40639;53.170;6.728;2023-07-28T05:05:53;19.17;;;7.90;;
54743;SDS011;40639;53.170;6.728;2023-07-28T05:08:19;19.10;;;8.50;;
54743;SDS011;40639;53.170;6.728;2023-07-28T05:10:46;16.33;;;8.13;;
54743;SDS011;40639;53.170;6.728;2023-07-28T05:13:12;17.35;;;7.63;;
54743;SDS011;40639;53.170;6.728;2023-07-28T05:15:38;15.90;;;7.93;;
54743;SDS011;40639;53.170;6.728;2023-07-28T05:18:04;16.67;;;7.47;;
54743;SDS011;40639;53.170;6.728;2023-07-28T05:20:30;12.70;;;7.20;;
54743;SDS011;40639;53.170;6.728;2023-07-28T05:22:56;15.10;;;7.80;;
54743;SDS011;40639;53.170;6.728;2023-07-28T05:25:23;16.83;;;7.40;;
54743;SDS011;40639;53.170;6.728;2023-07-28T05:27:49;14.85;;;7.40;;
54743;SDS011;40639;53.170;6.728;2023-07-28T05:30:15;13.90;;;7.45;;
54743;SDS011;40639;53.170;6.728;2023-07-28T05:32:41;13.23;;;6.70;;
54743;SDS011;40639;53.170;6.728;2023-07-28T05:35:07;23.02;;;8.60;;
54743;SDS011;40639;53.170;6.728;2023-07-28T05:37:33;12.63;;;6.53;;
54743;SDS011;40639;53.170;6.728;2023-07-28T05:39:59;14.18;;;6.47;;
54743;SDS011;40639;53.170;6.728;2023-07-28T05:42:25;15.80;;;6.90;;
54743;SDS011;40639;53.170;6.728;2023-07-28T05:44:52;14.70;;;6.32;;
54743;SDS011;40639;53.170;6.728;2023-07-28T05:47:20;14.05;;;6.18;;
54743;SDS011;40639;53.170;6.728;2023-07-28T05:49:46;13.05;;;6.20;;
54743;SDS011;40639;53.170;6.728;2023-07-28T05:52:12;16.40;;;6.88;;
54743;SDS011;40639;53.170;6.728;2023-07-28T05:54:38;13.10;;;6.43;;
54743;SDS011;40639;53.170;6.728;2023-07-28T05:57:04;10.65;;;6.03;;
54743;SDS011;40639;53.170;6.728;2023-07-28T05:59:31;13.40;;;6.07;;
54743;SDS011;40639;53.170;6.728;2023-07-28T06:01:57;14.13;;;6.47;;
54743;SDS011;40639;53.170;6.728;2023-07-28T06:04:23;13.25;;;7.30;;
54743;SDS011;40639;53.170;6.728;2023-07-28T06:06:49;12.63;;;6.43;;
54743;SDS011;40639;53.170;6.728;2023-07-28T06:09:15;14.20;;;6.60;;
54743;SDS011;40639;53.170;6.728;2023-07-28T06:11:41;16.00;;;6.47;;
54743;SDS011;40639;53.170;6.728;2023-07-28T06:14:07;12.32;;;6.72;;
54743;SDS011;40639;53.170;6.728;2023-07-28T06:16:34;15.90;;;7.85;;
54743;SDS011;40639;53.170;6.728;2023-07-28T06:19:00;12.95;;;6.72;;
54743;SDS011;40639;53.170;6.728;2023-07-28T06:21:26;16.00;;;7.10;;
54743;SDS011;40639;53.170;6.728;2023-07-28T06:23:52;14.23;;;7.22;;
54743;SDS011;40639;53.170;6.728;2023-07-28T06:26:18;12.23;;;7.28;;
54743;SDS011;40639;53.170;6.728;2023-07-28T06:28:44;11.73;;;6.40;;
54743;SDS011;40639;53.170;6.728;2023-07-28T06:31:10;12.88;;;6.75;;
54743;SDS011;40639;53.170;6.728;2023-07-28T06:33:37;14.23;;;5.72;;
54743;SDS011;40639;53.170;6.728;2023-07-28T06:36:03;10.50;;;5.60;;
54743;SDS011;40639;53.170;6.728;2023-07-28T06:38:29;11.23;;;5.45;;
54743;SDS011;40639;53.170;6.728;2023-07-28T06:40:55;10.82;;;5.50;;
54743;SDS011;40639;53.170;6.728;2023-07-28T06:43:22;11.52;;;5.97;;
54743;SDS011;40639;53.170;6.728;2023-07-28T06:45:51;8.23;;;5.20;;
54743;SDS011;40639;53.170;6.728;2023-07-28T06:48:17;9.30;;;5.68;;
54743;SDS011;40639;53.170;6.728;2023-07-28T06:50:43;11.88;;;5.47;;
54743;SDS011;40639;53.170;6.728;2023-07-28T06:53:09;9.98;;;5.78;;
54743;SDS011;40639;53.170;6.728;2023-07-28T06:55:35;8.07;;;5.50;;
54743;SDS011;40639;53.170;6.728;2023-07-28T06:58:04;11.23;;;6.20;;
54743;SDS011;40639;53.170;6.728;2023-07-28T07:00:30;8.15;;;5.40;;
54743;SDS011;40639;53.170;6.728;2023-07-28T07:02:57;9.82;;;5.43;;
54743;SDS011;40639;53.170;6.728;2023-07-28T07:05:23;10.07;;;6.13;;
54743;SDS011;40639;53.170;6.728;2023-07-28T07:07:49;8.07;;;5.13;;
54743;SDS011;40639;53.170;6.728;2023-07-28T07:10:15;10.55;;;5.47;;
54743;SDS011;40639;53.170;6.728;2023-07-28T07:12:41;8.15;;;5.63;;
54743;SDS011;40639;53.170;6.728;2023-07-28T07:15:08;10.77;;;5.45;;
54743;SDS011;40639;53.170;6.728;2023-07-28T07:17:34;8.75;;;5.57;;
54743;SDS011;40639;53.170;6.728;2023-07-28T07:20:00;6.65;;;4.70;;
54743;SDS011;40639;53.170;6.728;2023-07-28T07:22:26;7.65;;;4.85;;
54743;SDS011;40639;53.170;6.728;2023-07-28T07:24:53;9.35;;;5.47;;
54743;SDS011;40639;53.170;6.728;2023-07-28T07:27:21;5.63;;;4.72;;
54743;SDS011;40639;53.170;6.728;2023-07-28T07:29:47;6.65;;;4.30;;
54743;SDS011;40639;53.170;6.728;2023-07-28T07:32:13;6.15;;;4.00;;
54743;SDS011;40639;53.170;6.728;2023-07-28T07:34:41;5.40;;;3.55;;
54743;SDS011;40639;53.170;6.728;2023-07-28T07:37:07;8.00;;;4.15;;
54743;SDS011;40639;53.170;6.728;2023-07-28T07:39:33;4.93;;;3.28;;
54743;SDS011;40639;53.170;6.728;2023-07-28T07:42:01;5.20;;;3.53;;
54743;SDS011;40639;53.170;6.728;2023-07-28T07:44:27;4.78;;;3.80;;
54743;SDS011;40639;53.170;6.728;2023-07-28T07:46:53;6.65;;;4.35;;
54743;SDS011;40639;53.170;6.728;2023-07-28T07:49:19;6.93;;;4.07;;
54743;SDS011;40639;53.170;6.728;2023-07-28T07:51:45;6.15;;;4.15;;
54743;SDS011;40639;53.170;6.728;2023-07-28T07:54:11;7.68;;;5.00;;
54743;SDS011;40639;53.170;6.728;2023-07-28T07:56:41;5.90;;;4.13;;
54743;SDS011;40639;53.170;6.728;2023-07-28T07:59:07;5.18;;;4.43;;
54743;SDS011;40639;53.170;6.728;2023-07-28T08:01:33;5.78;;;4.10;;
54743;SDS011;40639;53.170;6.728;2023-07-28T08:03:59;8.80;;;4.75;;
54743;SDS011;40639;53.170;6.728;2023-07-28T08:06:25;5.70;;;4.50;;
54743;SDS011;40639;53.170;6.728;2023-07-28T08:08:52;6.35;;;4.80;;
54743;SDS011;40639;53.170;6.728;2023-07-28T08:11:19;8.65;;;5.13;;
54743;SDS011;40639;53.170;6.728;2023-07-28T08:13:45;7.18;;;4.30;;
54743;SDS011;40639;53.170;6.728;2023-07-28T08:16:13;5.65;;;4.10;;
54743;SDS011;40639;53.170;6.728;2023-07-28T08:18:39;8.07;;;4.53;;
54743;SDS011;40639;53.170;6.728;2023-07-28T08:21:06;6.07;;;4.43;;
54743;SDS011;40639;53.170;6.728;2023-07-28T08:23:32;5.15;;;3.88;;
54743;SDS011;40639;53.170;6.728;2023-07-28T08:25:58;6.90;;;4.68;;
54743;SDS011;40639;53.170;6.728;2023-07-28T08:28:24;6.85;;;5.10;;
54743;SDS011;40639;53.170;6.728;2023-07-28T08:30:54;4.35;;;3.75;;
54743;SDS011;40639;53.170;6.728;2023-07-28T08:33:21;7.07;;;4.18;;
54743;SDS011;40639;53.170;6.728;2023-07-28T08:35:47;5.82;;;4.18;;
54743;SDS011;40639;53.170;6.728;2023-07-28T08:38:13;5.40;;;4.05;;
54743;SDS011;40639;53.170;6.728;2023-07-28T08:40:39;6.28;;;4.35;;
54743;SDS011;40639;53.170;6.728;2023-07-28T08:43:06;4.90;;;4.30;;
54743;SDS011;40639;53.170;6.728;2023-07-28T08:45:32;6.13;;;4.05;;
54743;SDS011;40639;53.170;6.728;2023-07-28T08:47:58;5.72;;;4.05;;
54743;SDS011;40639;53.170;6.728;2023-07-28T08:50:24;5.78;;;3.95;;
54743;SDS011;40639;53.170;6.728;2023-07-28T08:52:51;4.85;;;3.58;;
54743;SDS011;40639;53.170;6.728;2023-07-28T08:55:17;6.15;;;3.60;;
54743;SDS011;40639;53.170;6.728;2023-07-28T08:57:43;5.00;;;3.63;;
54743;SDS011;40639;53.170;6.728;2023-07-28T09:00:10;4.22;;;3.30;;
54743;SDS011;40639;53.170;6.728;2023-07-28T09:02:39;5.55;;;3.83;;
54743;SDS011;40639;53.170;6.728;2023-07-28T09:05:05;4.47;;;3.30;;
54743;SDS011;40639;53.170;6.728;2023-07-28T09:07:35;4.88;;;3.63;;
54743;SDS011;40639;53.170;6.728;2023-07-28T09:10:04;5.15;;;3.88;;
54743;SDS011;40639;53.170;6.728;2023-07-28T09:12:31;5.70;;;3.67;;
54743;SDS011;40639;53.170;6.728;2023-07-28T09:14:57;4.80;;;3.83;;
54743;SDS011;40639;53.170;6.728;2023-07-28T09:17:23;6.13;;;3.90;;
54743;SDS011;40639;53.170;6.728;2023-07-28T09:19:53;5.80;;;3.90;;
54743;SDS011;40639;53.170;6.728;2023-07-28T09:22:20;5.68;;;3.70;;
54743;SDS011;40639;53.170;6.728;2023-07-28T09:24:46;4.20;;;3.80;;
54743;SDS011;40639;53.170;6.728;2023-07-28T09:27:19;4.93;;;3.33;;
54743;SDS011;40639;53.170;6.728;2023-07-28T09:29:53;5.30;;;3.40;;
54743;SDS011;40639;53.170;6.728;2023-07-28T09:32:26;5.32;;;3.83;;
54743;SDS011;40639;53.170;6.728;2023-07-28T09:35:15;4.75;;;3.28;;
54743;SDS011;40639;53.170;6.728;2023-07-28T09:40:07;3.78;;;2.92;;
54743;SDS011;40639;53.170;6.728;2023-07-28T09:42:36;3.60;;;2.83;;
54743;SDS011;40639;53.170;6.728;2023-07-28T09:45:04;3.30;;;2.80;;
54743;SDS011;40639;53.170;6.728;2023-07-28T09:47:30;4.05;;;2.78;;
54743;SDS011;40639;53.170;6.728;2023-07-28T09:49:59;3.35;;;2.80;;
54743;SDS011;40639;53.170;6.728;2023-07-28T09:52:28;4.60;;;3.10;;
54743;SDS011;40639;53.170;6.728;2023-07-28T09:54:56;3.50;;;2.60;;
54743;SDS011;40639;53.170;6.728;2023-07-28T09:57:24;3.47;;;2.80;;
54743;SDS011;40639;53.170;6.728;2023-07-28T09:59:54;2.92;;;2.63;;
54743;SDS011;40639;53.170;6.728;2023-07-28T10:02:21;5.88;;;3.40;;
54743;SDS011;40639;53.170;6.728;2023-07-28T10:04:47;4.75;;;3.13;;
54743;SDS011;40639;53.170;6.728;2023-07-28T10:07:13;2.88;;;2.47;;
54743;SDS011;40639;53.170;6.728;2023-07-28T10:09:40;3.80;;;2.75;;
54743;SDS011;40639;53.170;6.728;2023-07-28T10:12:06;4.25;;;3.22;;
54743;SDS011;40639;53.170;6.728;2023-07-28T10:14:42;4.63;;;3.53;;
54743;SDS011;40639;53.170;6.728;2023-07-28T10:17:09;5.15;;;2.90;;
54743;SDS011;40639;53.170;6.728;2023-07-28T10:19:41;3.35;;;2.55;;
54743;SDS011;40639;53.170;6.728;2023-07-28T10:22:09;3.42;;;2.60;;
54743;SDS011;40639;53.170;6.728;2023-07-28T10:27:30;4.05;;;2.30;;
54743;SDS011;40639;53.170;6.728;2023-07-28T10:29:59;4.35;;;2.45;;
54743;SDS011;40639;53.170;6.728;2023-07-28T10:32:27;4.88;;;2.42;;
54743;SDS011;40639;53.170;6.728;2023-07-28T10:35:01;2.20;;;2.00;;
54743;SDS011;40639;53.170;6.728;2023-07-28T10:37:28;3.53;;;2.30;;
54743;SDS011;40639;53.170;6.728;2023-07-28T10:42:39;2.92;;;2.13;;
54743;SDS011;40639;53.170;6.728;2023-07-28T10:45:05;4.20;;;2.20;;
54743;SDS011;40639;53.170;6.728;2023-07-28T10:47:34;3.28;;;2.00;;
54743;SDS011;40639;53.170;6.728;2023-07-28T10:50:02;3.80;;;2.08;;
54743;SDS011;40639;53.170;6.728;2023-07-28T10:52:29;4.05;;;2.22;;
54743;SDS011;40639;53.170;6.728;2023-07-28T10:54:55;3.63;;;2.17;;
54743;SDS011;40639;53.170;6.728;2023-07-28T10:57:23;3.95;;;2.28;;
54743;SDS011;40639;53.170;6.728;2023-07-28T10:59:51;2.90;;;2.20;;
54743;SDS011;40639;53.170;6.728;2023-07-28T11:02:17;3.45;;;2.13;;
54743;SDS011;40639;53.170;6.728;2023-07-28T11:04:46;3.75;;;2.28;;
54743;SDS011;40639;53.170;6.728;2023-07-28T11:07:12;2.95;;;1.92;;
54743;SDS011;40639;53.170;6.728;2023-07-28T11:09:39;4.72;;;2.00;;
54743;SDS011;40639;53.170;6.728;2023-07-28T11:12:08;2.80;;;2.00;;
54743;SDS011;40639;53.170;6.728;2023-07-28T11:14:35;5.88;;;2.13;;
54743;SDS011;40639;53.170;6.728;2023-07-28T11:17:01;2.97;;;1.90;;
54743;SDS011;40639;53.170;6.728;2023-07-28T11:19:28;3.47;;;2.08;;
54743;SDS011;40639;53.170;6.728;2023-07-28T11:21:54;2.85;;;2.17;;
54743;SDS011;40639;53.170;6.728;2023-07-28T11:24:21;3.20;;;1.80;;
54743;SDS011;40639;53.170;6.728;2023-07-28T11:26:49;4.80;;;1.95;;
54743;SDS011;40639;53.170;6.728;2023-07-28T11:29:15;2.38;;;1.73;;
54743;SDS011;40639;53.170;6.728;2023-07-28T11:31:41;3.40;;;1.77;;
54743;SDS011;40639;53.170;6.728;2023-07-28T11:34:14;2.45;;;1.70;;
54743;SDS011;40639;53.170;6.728;2023-07-28T11:36:40;3.28;;;2.10;;
54743;SDS011;40639;53.170;6.728;2023-07-28T11:39:07;3.65;;;1.83;;
54743;SDS011;40639;53.170;6.728;2023-07-28T11:41:34;3.53;;;1.80;;
54743;SDS011;40639;53.170;6.728;2023-07-28T11:44:00;2.65;;;1.60;;
54743;SDS011;40639;53.170;6.728;2023-07-28T11:46:34;2.35;;;1.38;;
54743;SDS011;40639;53.170;6.728;2023-07-28T11:49:07;3.50;;;2.17;;
54743;SDS011;40639;53.170;6.728;2023-07-28T11:51:36;4.90;;;1.73;;
54743;SDS011;40639;53.170;6.728;2023-07-28T11:54:03;2.95;;;1.83;;
54743;SDS011;40639;53.170;6.728;2023-07-28T11:56:30;2.17;;;1.48;;
54743;SDS011;40639;53.170;6.728;2023-07-28T11:58:56;3.17;;;1.40;;
54743;SDS011;40639;53.170;6.728;2023-07-28T12:01:22;3.50;;;1.90;;
54743;SDS011;40639;53.170;6.728;2023-07-28T12:03:48;2.28;;;1.30;;
54743;SDS011;40639;53.170;6.728;2023-07-28T12:06:15;4.30;;;1.60;;
54743;SDS011;40639;53.170;6.728;2023-07-28T12:08:41;2.90;;;1.27;;
54743;SDS011;40639;53.170;6.728;2023-07-28T12:11:11;3.90;;;1.60;;
54743;SDS011;40639;53.170;6.728;2023-07-28T12:13:46;4.13;;;2.15;;
54743;SDS011;40639;53.170;6.728;2023-07-28T12:16:30;3.35;;;1.88;;
54743;SDS011;40639;53.170;6.728;2023-07-28T12:18:57;2.53;;;1.50;;
54743;SDS011;40639;53.170;6.728;2023-07-28T12:21:23;4.35;;;2.00;;
54743;SDS011;40639;53.170;6.728;2023-07-28T12:23:50;2.88;;;1.92;;
54743;SDS011;40639;53.170;6.728;2023-07-28T12:26:16;2.03;;;1.50;;
54743;SDS011;40639;53.170;6.728;2023-07-28T12:28:42;3.60;;;1.95;;
54743;SDS011;40639;53.170;6.728;2023-07-28T12:31:08;2.58;;;1.35;;
54743;SDS011;40639;53.170;6.728;2023-07-28T12:33:34;4.03;;;1.45;;
54743;SDS011;40639;53.170;6.728;2023-07-28T12:36:01;1.98;;;1.40;;
54743;SDS011;40639;53.170;6.728;2023-07-28T12:38:27;3.40;;;1.50;;
54743;SDS011;40639;53.170;6.728;2023-07-28T12:40:53;2.70;;;1.50;;
54743;SDS011;40639;53.170;6.728;2023-07-28T12:43:19;2.25;;;1.50;;
54743;SDS011;40639;53.170;6.728;2023-07-28T12:45:46;1.80;;;1.30;;
54743;SDS011;40639;53.170;6.728;2023-07-28T12:48:12;3.00;;;1.35;;
54743;SDS011;40639;53.170;6.728;2023-07-28T12:50:38;1.38;;;1.20;;
54743;SDS011;40639;53.170;6.728;2023-07-28T12:53:04;2.10;;;1.50;;
54743;SDS011;40639;53.170;6.728;2023-07-28T12:55:30;3.38;;;1.60;;
54743;SDS011;40639;53.170;6.728;2023-07-28T12:57:57;2.45;;;1.30;;
54743;SDS011;40639;53.170;6.728;2023-07-28T13:00:25;2.30;;;1.40;;
54743;SDS011;40639;53.170;6.728;2023-07-28T13:02:51;2.40;;;1.30;;
54743;SDS011;40639;53.170;6.728;2023-07-28T13:05:17;3.03;;;1.27;;
54743;SDS011;40639;53.170;6.728;2023-07-28T13:07:43;1.80;;;1.13;;
54743;SDS011;40639;53.170;6.728;2023-07-28T13:10:10;2.92;;;1.27;;
54743;SDS011;40639;53.170;6.728;2023-07-28T13:12:37;1.30;;;1.10;;
54743;SDS011;40639;53.170;6.728;2023-07-28T13:15:03;5.28;;;1.38;;
54743;SDS011;40639;53.170;6.728;2023-07-28T13:17:30;1.33;;;1.10;;
54743;SDS011;40639;53.170;6.728;2023-07-28T13:19:56;1.30;;;1.20;;
54743;SDS011;40639;53.170;6.728;2023-07-28T13:22:23;1.30;;;1.20;;
54743;SDS011;40639;53.170;6.728;2023-07-28T13:24:51;2.08;;;1.20;;
54743;SDS011;40639;53.170;6.728;2023-07-28T13:27:18;3.80;;;1.30;;
54743;SDS011;40639;53.170;6.728;2023-07-28T13:29:44;1.55;;;1.00;;
54743;SDS011;40639;53.170;6.728;2023-07-28T13:32:17;2.30;;;1.23;;
54743;SDS011;40639;53.170;6.728;2023-07-28T13:34:44;1.55;;;1.30;;
54743;SDS011;40639;53.170;6.728;2023-07-28T13:37:10;1.55;;;1.30;;
54743;SDS011;40639;53.170;6.728;2023-07-28T13:39:36;1.98;;;1.33;;
54743;SDS011;40639;53.170;6.728;2023-07-28T13:42:02;1.88;;;1.25;;
54743;SDS011;40639;53.170;6.728;2023-07-28T13:44:28;2.58;;;1.20;;
54743;SDS011;40639;53.170;6.728;2023-07-28T13:46:55;1.45;;;1.20;;
54743;SDS011;40639;53.170;6.728;2023-07-28T13:49:21;1.30;;;1.20;;
54743;SDS011;40639;53.170;6.728;2023-07-28T13:51:47;1.13;;;1.02;;
54743;SDS011;40639;53.170;6.728;2023-07-28T13:54:13;1.10;;;1.00;;
54743;SDS011;40639;53.170;6.728;2023-07-28T13:56:39;2.03;;;1.15;;
54743;SDS011;40639;53.170;6.728;2023-07-28T13:59:05;1.80;;;1.17;;
54743;SDS011;40639;53.170;6.728;2023-07-28T14:01:32;1.40;;;1.30;;
54743;SDS011;40639;53.170;6.728;2023-07-28T14:03:58;1.70;;;1.17;;
54743;SDS011;40639;53.170;6.728;2023-07-28T14:06:24;1.42;;;1.33;;
54743;SDS011;40639;53.170;6.728;2023-07-28T14:08:50;1.98;;;1.60;;
54743;SDS011;40639;53.170;6.728;2023-07-28T14:11:16;3.63;;;1.75;;
54743;SDS011;40639;53.170;6.728;2023-07-28T14:13:42;3.40;;;1.52;;
54743;SDS011;40639;53.170;6.728;2023-07-28T14:16:08;3.00;;;1.65;;
54743;SDS011;40639;53.170;6.728;2023-07-28T14:18:35;2.80;;;1.40;;
54743;SDS011;40639;53.170;6.728;2023-07-28T14:21:01;7.18;;;2.63;;
54743;SDS011;40639;53.170;6.728;2023-07-28T14:23:27;2.95;;;1.75;;
54743;SDS011;40639;53.170;6.728;2023-07-28T14:25:54;5.13;;;2.20;;
54743;SDS011;40639;53.170;6.728;2023-07-28T14:28:20;4.03;;;1.92;;
54743;SDS011;40639;53.170;6.728;2023-07-28T14:30:47;4.28;;;1.95;;
54743;SDS011;40639;53.170;6.728;2023-07-28T14:33:13;3.00;;;1.95;;
54743;SDS011;40639;53.170;6.728;2023-07-28T14:35:40;2.40;;;1.90;;
54743;SDS011;40639;53.170;6.728;2023-07-28T14:38:06;2.85;;;2.05;;
54743;SDS011;40639;53.170;6.728;2023-07-28T14:40:33;3.08;;;1.77;;
54743;SDS011;40639;53.170;6.728;2023-07-28T14:42:59;2.75;;;1.75;;
54743;SDS011;40639;53.170;6.728;2023-07-28T14:45:25;3.13;;;1.80;;
54743;SDS011;40639;53.170;6.728;2023-07-28T14:47:51;3.08;;;1.70;;